Time;durP1;ratioP1;P1;durP2;ratioP2;P2;SDS_P1;SDS_P2;PMS_P1;PMS_P2;Temp;Humidity;BMP_temperature;BMP_pressure;BME280_temperature;BME280_humidity;BME280_pressure;Samples;Min_cycle;Max_cycle;Signal;HPM_P1;HPM_P2
2021/03/24 00:00:16;;;;;;;35.33;17.45;;;;;;;4.39;100.00;98535.09;5012571;28;20056;-79
2021/03/24 00:02:42;;;;;;;39.92;17.42;;;;;;;4.36;100.00;98540.19;5011494;28;20557;-78
2021/03/24 00:05:11;;;;;;;39.45;17.33;;;;;;;4.39;100.00;98536.97;5027526;28;20092;-78
2021/03/24 00:07:39;;;;;;;38.25;17.55;;;;;;;4.39;100.00;98540.47;5007828;28;20030;-78
2021/03/24 00:10:08;;;;;;;37.92;18.83;;;;;;;4.44;100.00;98538.91;5043465;28;20058;-79
2021/03/24 00:12:37;;;;;;;40.05;19.20;;;;;;;4.41;100.00;98537.53;5010726;28;20525;-78
2021/03/24 00:15:06;;;;;;;42.63;18.77;;;;;;;4.43;100.00;98542.63;5026795;28;20042;-77
2021/03/24 00:17:33;;;;;;;39.47;17.30;;;;;;;4.43;100.00;98529.25;5011726;28;20568;-78
2021/03/24 00:19:59;;;;;;;38.50;18.60;;;;;;;4.42;100.00;98536.47;5013747;28;20101;-80
2021/03/24 00:22:25;;;;;;;40.58;18.40;;;;;;;4.43;100.00;98529.25;5015944;28;20052;-79
2021/03/24 00:24:52;;;;;;;38.80;18.15;;;;;;;4.39;100.00;98539.66;5021239;28;20041;-79
2021/03/24 00:27:18;;;;;;;39.60;17.45;;;;;;;4.40;100.00;98533.25;5044598;28;20056;-79
2021/03/24 00:29:44;;;;;;;38.53;18.48;;;;;;;4.41;100.00;98532.19;5044703;28;20045;-79
2021/03/24 00:32:10;;;;;;;39.65;17.98;;;;;;;4.46;100.00;98536.78;5035247;28;20041;-79
2021/03/24 00:34:37;;;;;;;39.22;18.65;;;;;;;4.43;100.00;98539.97;5034097;28;20053;-80
2021/03/24 00:37:03;;;;;;;41.90;18.17;;;;;;;4.45;100.00;98535.16;5034086;28;20041;-80
2021/03/24 00:39:29;;;;;;;39.30;18.45;;;;;;;4.45;100.00;98541.31;5017426;28;20132;-79
2021/03/24 00:41:56;;;;;;;41.08;18.30;;;;;;;4.51;100.00;98534.97;5035356;28;20044;-79
2021/03/24 00:44:23;;;;;;;41.83;19.73;;;;;;;4.50;100.00;98537.88;5020667;28;20061;-79
2021/03/24 00:46:49;;;;;;;38.67;19.23;;;;;;;4.50;100.00;98535.19;5037175;28;20038;-79
2021/03/24 00:49:16;;;;;;;46.28;21.05;;;;;;;4.51;100.00;98540.31;5036459;28;20500;-78
2021/03/24 00:51:42;;;;;;;46.80;21.65;;;;;;;4.45;100.00;98533.28;5019542;28;20428;-78
2021/03/24 00:54:09;;;;;;;46.17;21.27;;;;;;;4.45;100.00;98533.28;5026976;28;20050;-79
2021/03/24 00:56:35;;;;;;;44.45;21.05;;;;;;;4.48;100.00;98532.78;5031794;28;20059;-79
2021/03/24 00:59:01;;;;;;;49.83;21.88;;;;;;;4.48;100.00;98529.28;5033757;28;20459;-78
2021/03/24 01:01:27;;;;;;;47.65;22.98;;;;;;;4.45;100.00;98527.91;5033620;28;20057;-79
2021/03/24 01:03:53;;;;;;;50.10;22.83;;;;;;;4.44;100.00;98536.22;5034157;28;20041;-79
2021/03/24 01:06:19;;;;;;;54.75;23.27;;;;;;;4.46;100.00;98529.56;5034545;28;20048;-78
2021/03/24 01:08:47;;;;;;;50.13;23.13;;;;;;;4.44;100.00;98528.19;5030447;28;20038;-79
2021/03/24 01:11:16;;;;;;;50.92;22.67;;;;;;;4.41;100.00;98524.16;5033241;28;20068;-79
2021/03/24 01:13:42;;;;;;;53.08;23.15;;;;;;;4.41;100.00;98521.47;5041948;28;20351;-79
2021/03/24 01:16:08;;;;;;;54.40;22.65;;;;;;;4.44;100.00;98530.88;5040660;28;20051;-78
2021/03/24 01:18:37;;;;;;;52.65;23.17;;;;;;;4.45;100.00;98525.25;5035709;28;20064;-79
2021/03/24 01:21:03;;;;;;;45.67;21.40;;;;;;;4.46;100.00;98518.81;5036591;28;20268;-78
2021/03/24 01:23:29;;;;;;;52.08;22.33;;;;;;;4.46;100.00;98520.69;5034078;28;20120;-79
2021/03/24 01:25:55;;;;;;;49.80;22.38;;;;;;;4.46;100.00;98520.69;5051948;28;20049;-76
2021/03/24 01:28:24;;;;;;;51.80;24.10;;;;;;;4.47;100.00;98511.56;5046132;28;20064;-78
2021/03/24 01:30:53;;;;;;;48.03;22.30;;;;;;;4.50;100.00;98522.59;5018558;28;20053;-78
2021/03/24 01:33:19;;;;;;;51.08;23.58;;;;;;;4.53;100.00;98516.75;5042966;28;20037;-79
2021/03/24 01:35:48;;;;;;;55.92;23.75;;;;;;;4.50;100.00;98505.72;5056441;28;20447;-77
2021/03/24 01:38:14;;;;;;;57.83;26.17;;;;;;;4.57;100.00;98515.16;5056396;28;20059;-79
2021/03/24 01:40:52;;;;;;;54.50;25.10;;;;;;;4.60;100.00;98520.00;5050120;28;20124;-79
2021/03/24 01:43:30;;;;;;;51.72;23.83;;;;;;;4.62;100.00;98504.47;5043593;28;20042;-79
2021/03/24 01:46:19;;;;;;;57.47;26.13;;;;;;;4.66;100.00;98524.38;5042733;28;20060;-78
2021/03/24 01:48:47;;;;;;;54.85;23.95;;;;;;;4.66;100.00;98516.31;5042281;28;20120;-76
2021/03/24 01:51:15;;;;;;;53.85;26.05;;;;;;;4.68;100.00;98524.91;5039125;28;20045;-77
2021/03/24 01:53:45;;;;;;;53.72;24.50;;;;;;;4.68;100.00;98516.06;5037226;28;20117;-77
2021/03/24 01:56:13;;;;;;;60.10;25.23;;;;;;;4.66;100.00;98513.66;5035938;28;20095;-77
2021/03/24 01:58:39;;;;;;;54.45;24.17;;;;;;;4.66;100.00;98510.97;5032569;28;20176;-78
2021/03/24 02:01:14;;;;;;;51.75;24.38;;;;;;;4.70;100.00;98519.28;5032348;28;20037;-79
2021/03/24 02:03:41;;;;;;;56.88;24.85;;;;;;;4.68;100.00;98511.50;5030749;28;20227;-78
2021/03/24 02:06:16;;;;;;;56.40;25.30;;;;;;;4.68;100.00;98508.81;5033482;28;20049;-78
2021/03/24 02:08:47;;;;;;;54.57;24.83;;;;;;;4.66;100.00;98521.69;5022162;28;20057;-78
2021/03/24 02:11:25;;;;;;;57.90;25.88;;;;;;;4.65;100.00;98503.97;5011726;28;20694;-78
2021/03/24 02:13:59;;;;;;;57.03;25.20;;;;;;;4.65;100.00;98508.53;5013479;28;20046;-77
2021/03/24 02:16:31;;;;;;;53.63;25.67;;;;;;;4.66;100.00;98516.31;5011531;28;20045;-78
2021/03/24 02:19:04;;;;;;;54.75;25.77;;;;;;;4.63;100.00;98511.47;5012941;28;20093;-78
2021/03/24 02:21:36;;;;;;;54.03;25.55;;;;;;;4.68;100.00;98497.28;5011651;28;20126;-78
2021/03/24 02:24:40;;;;;;;53.00;24.73;;;;;;;4.65;100.00;98509.34;5012655;28;20045;-77
2021/03/24 02:27:07;;;;;;;56.58;24.52;;;;;;;4.59;100.00;98507.69;5023955;28;20056;-77
2021/03/24 02:29:36;;;;;;;52.30;25.15;;;;;;;4.61;100.00;98505.56;5011776;28;20053;-77
2021/03/24 02:32:06;;;;;;;55.53;25.02;;;;;;;4.62;100.00;98509.06;5013555;28;20041;-78
2021/03/24 02:34:34;;;;;;;56.25;25.48;;;;;;;4.61;100.00;98502.88;5012837;28;20167;-78
2021/03/24 02:37:01;;;;;;;56.13;25.05;;;;;;;4.63;100.00;98500.75;5014077;28;20065;-78
2021/03/24 02:39:31;;;;;;;53.30;25.50;;;;;;;4.64;100.00;98504.25;5012525;28;20050;-78
2021/03/24 02:42:01;;;;;;;54.92;25.88;;;;;;;4.62;100.00;98496.44;5013549;28;20054;-79
2021/03/24 02:44:28;;;;;;;57.55;25.65;;;;;;;4.65;100.00;98501.28;5013874;28;20046;-78
2021/03/24 02:46:56;;;;;;;54.95;25.52;;;;;;;4.64;100.00;98499.69;5014587;28;20092;-79
2021/03/24 02:49:25;;;;;;;54.90;25.75;;;;;;;4.63;100.00;98506.09;4996538;28;20565;-79
2021/03/24 02:51:52;;;;;;;59.00;26.13;;;;;;;4.65;100.00;98501.28;5012647;28;20042;-78
2021/03/24 02:54:26;;;;;;;61.05;26.40;;;;;;;4.67;100.00;98499.16;5013670;28;20239;-79
2021/03/24 02:56:52;;;;;;;62.33;26.85;;;;;;;4.66;100.00;98496.75;5013047;28;20050;-80
2021/03/24 02:59:21;;;;;;;59.88;26.05;;;;;;;4.64;100.00;98494.31;4997890;28;20041;-79
2021/03/24 03:02:18;;;;;;;56.00;26.40;;;;;;;4.66;100.00;98486.81;5014177;28;20042;-80
2021/03/24 03:04:51;;;;;;;64.97;26.63;;;;;;;4.64;100.00;98494.31;5005451;28;20058;-78
2021/03/24 03:07:33;;;;;;;56.15;25.23;;;;;;;4.72;100.00;98499.19;4995347;28;20046;-79
2021/03/24 03:10:17;;;;;;;50.50;24.95;;;;;;;4.72;100.00;98490.38;5013571;28;20133;-79
2021/03/24 03:12:57;;;;;;;57.33;26.10;;;;;;;4.70;100.00;98497.84;5018619;28;20068;-79
2021/03/24 03:15:32;;;;;;;56.25;25.85;;;;;;;4.68;100.00;98495.41;4996834;28;20054;-79
2021/03/24 03:18:06;;;;;;;52.45;25.25;;;;;;;4.68;100.00;98500.78;5011813;28;20046;-79
2021/03/24 03:20:44;;;;;;;53.03;24.95;;;;;;;4.66;100.00;98502.09;4996581;28;20061;-79
2021/03/24 03:23:17;;;;;;;57.72;25.88;;;;;;;4.70;100.00;98497.84;5012039;28;20046;-79
2021/03/24 03:26:06;;;;;;;57.92;26.02;;;;;;;4.70;100.00;98495.16;5013062;28;20041;-80
2021/03/24 03:28:36;;;;;;;57.55;25.33;;;;;;;4.67;100.00;98493.00;5011767;28;20042;-78
2021/03/24 03:31:05;;;;;;;58.13;25.08;;;;;;;4.67;100.00;98499.16;4994637;28;20114;-78
2021/03/24 03:33:35;;;;;;;68.15;26.65;;;;;;;4.68;100.00;98497.28;5010613;28;20046;-78
2021/03/24 03:36:04;;;;;;;55.75;26.30;;;;;;;4.73;100.00;98502.69;5012080;28;20046;-78
2021/03/24 03:38:35;;;;;;;59.15;26.70;;;;;;;4.68;100.00;98500.78;5013803;28;20053;-79
2021/03/24 03:41:05;;;;;;;54.05;25.95;;;;;;;4.69;100.00;98490.88;5011998;28;20057;-78
2021/03/24 03:43:31;;;;;;;56.25;25.38;;;;;;;4.70;100.00;98500.50;5011202;28;20045;-79
2021/03/24 03:46:01;;;;;;;54.28;25.52;;;;;;;4.68;100.00;98500.78;5023132;28;20376;-79
2021/03/24 03:48:28;;;;;;;58.50;26.35;;;;;;;4.70;100.00;98489.78;5027652;28;20394;-78
2021/03/24 03:51:37;;;;;;;54.35;25.23;;;;;;;4.70;100.00;98487.91;5043282;28;20076;-79
2021/03/24 03:54:07;;;;;;;55.00;25.95;;;;;;;4.69;100.00;98489.00;5037048;28;20064;-79
2021/03/24 03:56:59;;;;;;;55.83;25.17;;;;;;;4.70;100.00;98490.59;5016373;28;20054;-79
2021/03/24 03:59:47;;;;;;;61.88;26.58;;;;;;;4.63;100.00;98489.19;5051223;28;20052;-80
2021/03/24 04:02:16;;;;;;;55.22;24.77;;;;;;;4.62;100.00;98493.75;5057810;28;20063;-78
2021/03/24 04:04:56;;;;;;;54.58;25.83;;;;;;;4.61;100.00;98494.84;5056248;28;20041;-79
2021/03/24 04:07:25;;;;;;;55.67;25.73;;;;;;;4.62;100.00;98485.72;5026964;28;20037;-78
2021/03/24 04:09:54;;;;;;;59.53;25.95;;;;;;;4.57;100.00;98490.25;5024802;28;20065;-79
2021/03/24 04:12:23;;;;;;;57.20;25.08;;;;;;;4.58;100.00;98492.66;5015635;28;20485;-77
2021/03/24 04:14:51;;;;;;;55.97;26.67;;;;;;;4.56;100.00;98489.44;5015253;28;20100;-79
2021/03/24 04:17:25;;;;;;;60.42;26.40;;;;;;;4.57;100.00;98501.75;4999065;28;20145;-79
2021/03/24 04:19:54;;;;;;;59.28;26.77;;;;;;;4.59;100.00;98493.47;5023368;28;20060;-78
2021/03/24 04:22:26;;;;;;;59.15;26.20;;;;;;;4.62;100.00;98495.66;5041850;28;20524;-79
2021/03/24 04:25:14;;;;;;;57.00;26.05;;;;;;;4.64;100.00;98501.56;5036913;28;20046;-79
2021/03/24 04:27:43;;;;;;;61.20;26.50;;;;;;;4.65;100.00;98506.66;5050924;28;20041;-78
2021/03/24 04:30:12;;;;;;;61.90;27.60;;;;;;;4.62;100.00;98501.78;5035304;28;20064;-79
2021/03/24 04:32:41;;;;;;;60.42;26.85;;;;;;;4.58;100.00;98503.38;5034227;28;20467;-79
2021/03/24 04:35:08;;;;;;;56.67;26.75;;;;;;;4.64;100.00;98506.91;5034303;28;20073;-79
2021/03/24 04:37:38;;;;;;;55.85;25.80;;;;;;;4.61;100.00;98500.19;5034742;28;20065;-79
2021/03/24 04:40:08;;;;;;;57.78;27.48;;;;;;;4.62;100.00;98498.31;5035986;28;20562;-79
2021/03/24 04:43:03;;;;;;;59.17;27.15;;;;;;;4.70;100.00;98506.69;5033321;28;20055;-78
2021/03/24 04:45:38;;;;;;;52.92;25.38;;;;;;;4.69;100.00;98502.41;5022286;28;20069;-78
2021/03/24 04:48:13;;;;;;;56.90;26.40;;;;;;;4.71;100.00;98504.81;5036928;28;20037;-78
2021/03/24 04:50:46;;;;;;;56.70;26.08;;;;;;;4.74;100.00;98510.50;5035769;28;20148;-78
2021/03/24 04:53:16;;;;;;;55.65;25.08;;;;;;;4.74;100.00;98507.81;5035195;28;20115;-78
2021/03/24 04:55:44;;;;;;;57.78;26.70;;;;;;;4.77;100.00;98503.81;5035492;28;20099;-79
2021/03/24 04:58:24;;;;;;;56.30;26.55;;;;;;;4.72;100.00;98506.47;5036369;28;20049;-79
2021/03/24 05:00:56;;;;;;;62.53;27.05;;;;;;;4.75;100.00;98509.41;5033604;28;20059;-79
2021/03/24 05:03:27;;;;;;;61.53;25.85;;;;;;;4.72;100.00;98514.50;5050731;22;20544;-76
2021/03/24 05:06:00;;;;;;;57.30;26.75;;;;;;;4.73;100.00;98513.41;5034338;28;20048;-75
2021/03/24 05:08:38;;;;;;;63.70;27.83;;;;;;;4.74;100.00;98515.06;5028785;28;20040;-75
2021/03/24 05:11:12;;;;;;;59.35;26.85;;;;;;;4.74;100.00;98505.13;5032664;28;20049;-75
2021/03/24 05:13:43;;;;;;;57.92;26.85;;;;;;;4.76;100.00;98511.03;5031936;28;20049;-76
2021/03/24 05:16:31;;;;;;;54.88;25.48;;;;;;;4.84;100.00;98509.75;5031662;28;20452;-76
2021/03/24 05:18:58;;;;;;;58.20;26.20;;;;;;;4.85;100.00;98512.19;5032892;28;20047;-77
2021/03/24 05:21:46;;;;;;;61.50;27.00;;;;;;;4.85;100.00;98511.41;5031066;28;20038;-77
2021/03/24 05:24:21;;;;;;;60.72;27.52;;;;;;;4.82;100.00;98514.59;5032079;28;20459;-76
2021/03/24 05:26:54;;;;;;;56.65;25.48;;;;;;;4.86;100.00;98524.53;5032183;28;20055;-75
2021/03/24 05:29:25;;;;;;;60.97;26.35;;;;;;;4.90;100.00;98525.63;5033582;28;20037;-75
2021/03/24 05:31:57;;;;;;;57.58;26.08;;;;;;;4.95;100.00;98519.53;5045331;28;20033;-75
2021/03/24 05:34:33;;;;;;;63.78;27.00;;;;;;;4.96;100.00;98515.75;5030876;28;20603;-75
2021/03/24 05:37:01;;;;;;;56.22;26.27;;;;;;;4.96;100.00;98523.81;5030491;28;20048;-74
2021/03/24 05:39:32;;;;;;;57.03;26.90;;;;;;;4.87;100.00;98518.13;5031292;28;20052;-75
2021/03/24 05:42:05;;;;;;;57.55;26.42;;;;;;;4.99;100.00;98517.94;5031620;28;20053;-76
2021/03/24 05:45:02;;;;;;;59.03;27.02;;;;;;;4.99;100.00;98528.66;5032030;28;20042;-75
2021/03/24 05:47:52;;;;;;;57.78;25.90;;;;;;;4.93;100.00;98527.00;5041919;28;20539;-75
2021/03/24 05:50:49;;;;;;;59.58;26.98;;;;;;;5.06;100.00;98526.56;5030458;28;20515;-75
2021/03/24 05:53:27;;;;;;;53.65;25.35;;;;;;;4.99;100.00;98526.78;5030737;28;20045;-75
2021/03/24 05:56:12;;;;;;;58.97;26.83;;;;;;;5.01;100.00;98530.03;5030585;28;20041;-75
2021/03/24 05:58:49;;;;;;;56.17;26.52;;;;;;;5.04;100.00;98528.69;5029719;28;20767;-74
2021/03/24 06:01:51;;;;;;;60.17;27.10;;;;;;;5.12;100.00;98533.59;5057138;28;20052;-76
2021/03/24 06:04:32;;;;;;;55.75;25.98;;;;;;;5.22;100.00;98532.84;5006523;28;20065;-75
2021/03/24 06:07:29;;;;;;;62.63;26.67;;;;;;;5.22;100.00;98532.84;5050426;28;20037;-74
2021/03/24 06:10:16;;;;;;;61.72;27.33;;;;;;;5.27;100.00;98531.00;5055730;28;20048;-75
2021/03/24 06:13:10;;;;;;;59.40;25.85;;;;;;;5.34;100.00;98539.63;5036994;28;20049;-75
2021/03/24 06:15:50;;;;;;;53.30;25.90;;;;;;;5.35;100.00;98537.78;5047178;28;20048;-76
2021/03/24 06:18:45;;;;;;;61.53;26.17;;;;;;;5.41;100.00;98529.50;5046270;28;20032;-74
2021/03/24 06:21:27;;;;;;;55.72;25.90;;;;;;;5.38;100.00;98534.56;5040648;28;20060;-75
2021/03/24 06:24:18;;;;;;;55.72;26.40;;;;;;;5.45;100.00;98538.66;5035585;28;20052;-76
2021/03/24 06:27:08;;;;;;;68.15;27.35;;;;;;;5.51;100.00;98544.84;5050676;28;20059;-74
2021/03/24 06:29:50;;;;;;;59.58;26.85;;;;;;;5.54;100.00;98547.84;5049523;28;20064;-75
2021/03/24 06:33:03;;;;;;;60.63;26.65;;;;;;;5.66;100.00;98559.19;5049012;28;20407;-75
2021/03/24 06:35:54;;;;;;;62.80;26.80;;;;;;;5.72;100.00;98554.66;5038738;28;20454;-75
2021/03/24 06:38:46;;;;;;;59.58;26.42;;;;;;;5.74;100.00;98544.44;5046641;28;20045;-75
2021/03/24 06:41:43;;;;;;;58.88;26.48;;;;;;;5.78;100.00;98558.97;5046322;28;20066;-75
2021/03/24 06:44:36;;;;;;;60.55;26.58;;;;;;;5.84;100.00;98549.03;5011921;28;20052;-74
2021/03/24 06:47:26;;;;;;;57.15;27.50;;;;;;;5.89;100.00;98554.47;5027654;28;20118;-75
2021/03/24 06:50:18;;;;;;;55.80;27.52;;;;;;;5.92;100.00;98553.97;5028486;28;20056;-75
2021/03/24 06:53:17;;;;;;;59.95;28.45;;;;;;;6.07;100.00;98556.69;5027817;28;20041;-76
2021/03/24 06:56:17;;;;;;;55.65;26.60;;;;;;;6.04;100.00;98547.28;5027125;28;20505;-75
2021/03/24 06:59:14;;;;;;;62.55;28.70;;;;;;;6.08;100.00;98561.03;5046033;28;20050;-74
2021/03/24 07:01:48;;;;;;;58.55;27.35;;;;;;;6.04;100.00;98552.66;5045814;28;20110;-76
2021/03/24 07:04:36;;;;;;;62.53;28.02;;;;;;;6.17;100.00;98565.63;5017118;28;20048;-75
2021/03/24 07:07:30;;;;;;;60.92;27.20;;;;;;;6.30;100.00;98556.25;5046264;28;20053;-75
2021/03/24 07:10:18;;;;;;;67.93;27.77;;;;;;;6.27;100.00;98571.03;5045876;28;20472;-74
2021/03/24 07:13:21;;;;;;;59.13;27.90;;;;;;;6.41;100.00;98567.84;5046056;28;20397;-75
2021/03/24 07:16:12;;;;;;;56.08;27.60;;;;;;;6.45;100.00;98574.31;5027804;28;20052;-75
2021/03/24 07:19:09;;;;;;;60.97;28.00;;;;;;;6.46;100.00;98571.34;5045768;28;20056;-75
2021/03/24 07:21:56;;;;;;;64.90;28.30;;;;;;;6.59;100.00;98570.03;5026662;28;20049;-75
2021/03/24 07:24:32;;;;;;;63.85;28.75;;;;;;;6.60;100.00;98566.28;5045890;28;20623;-74
2021/03/24 07:27:24;;;;;;;55.90;27.48;;;;;;;6.71;100.00;98570.63;5065271;28;20041;-75
2021/03/24 07:30:14;;;;;;;65.68;29.10;;;;;;;6.73;100.00;98563.09;5048219;28;20090;-74
2021/03/24 07:32:57;;;;;;;63.22;28.67;;;;;;;6.89;100.00;98575.50;5051684;28;20087;-75
2021/03/24 07:35:34;;;;;;;61.97;29.05;;;;;;;7.07;100.00;98580.31;5051132;28;20052;-75
2021/03/24 07:38:29;;;;;;;67.82;29.75;;;;;;;7.16;100.00;98578.72;5068887;28;20444;-75
2021/03/24 07:41:28;;;;;;;59.55;28.80;;;;;;;7.18;100.00;98581.13;5051968;28;20044;-73
2021/03/24 07:44:25;;;;;;;63.60;29.10;;;;;;;7.13;100.00;98587.34;5069321;28;20040;-75
2021/03/24 07:47:09;;;;;;;;;;;;;;;7.12;100.00;98574.97;5069533;28;20052;-75
2021/03/24 07:50:10;;;;;;;70.72;29.80;;;;;;;7.16;100.00;98581.41;5068939;28;19930;-74
2021/03/24 07:52:42;;;;;;;68.40;29.75;;;;;;;7.33;100.00;98587.31;5074231;28;20506;-74
2021/03/24 07:55:17;;;;;;;64.65;29.83;;;;;;;7.28;100.00;98581.94;5054139;28;20524;-74
2021/03/24 07:58:06;;;;;;;61.97;30.02;;;;;;;7.28;100.00;98584.63;5048948;28;20049;-74
2021/03/24 08:00:47;;;;;;;68.78;30.80;;;;;;;7.34;100.00;98588.94;5047882;28;20074;-75
2021/03/24 08:03:20;;;;;;;65.55;30.73;;;;;;;7.34;100.00;98578.19;5049277;28;20603;-75
2021/03/24 08:06:14;;;;;;;63.20;30.80;;;;;;;7.22;100.00;98576.84;5047910;28;20344;-75
2021/03/24 08:09:19;;;;;;;70.35;31.98;;;;;;;7.32;100.00;98569.56;5047316;28;20408;-75
2021/03/24 08:12:00;;;;;;;58.88;28.83;;;;;;;7.50;100.00;98571.69;5048681;28;20048;-75
2021/03/24 08:14:50;;;;;;;61.85;30.48;;;;;;;7.48;100.00;98568.44;5047679;28;20040;-75
2021/03/24 08:17:55;;;;;;;68.32;32.03;;;;;;;7.44;100.00;98570.09;5047497;28;20049;-75
2021/03/24 08:20:37;;;;;;;65.30;31.67;;;;;;;7.62;100.00;98575.97;5018878;28;20076;-75
2021/03/24 08:23:22;;;;;;;64.20;30.95;;;;;;;7.76;100.00;98568.94;5046999;28;20064;-76
2021/03/24 08:26:03;;;;;;;70.00;31.38;;;;;;;8.06;100.00;98563.44;5048923;28;20041;-75
2021/03/24 08:28:37;;;;;;;59.70;30.50;;;;;;;8.01;100.00;98566.97;5047304;28;20500;-75
2021/03/24 08:31:27;;;;;;;75.07;31.48;;;;;;;7.98;100.00;98561.31;5047276;28;20528;-75
2021/03/24 08:34:19;;;;;;;62.67;30.80;;;;;;;7.96;100.00;98566.19;5048583;28;20045;-74
2021/03/24 08:37:10;;;;;;;64.30;32.35;;;;;;;8.14;100.00;98569.09;5052522;28;20048;-74
2021/03/24 08:39:51;;;;;;;68.57;33.17;;;;;;;8.19;100.00;98562.84;5052885;28;20162;-74
2021/03/24 08:42:48;;;;;;;66.03;32.97;;;;;;;8.49;100.00;98554.63;5049520;28;20528;-74
2021/03/24 08:45:37;;;;;;;68.68;32.63;;;;;;;8.45;100.00;98556.28;5048234;28;20052;-74
2021/03/24 08:48:14;;;;;;;67.50;32.90;;;;;;;8.36;100.00;98549.06;5046411;28;20076;-75
2021/03/24 08:50:50;;;;;;;65.32;33.08;;;;;;;7.97;100.00;98555.16;5048332;28;20044;-75
2021/03/24 08:53:21;;;;;;;67.10;32.70;;;;;;;8.32;100.00;98556.09;5046365;28;20518;-74
2021/03/24 08:56:14;;;;;;;67.22;33.35;;;;;;;8.41;100.00;98549.84;5026778;28;20045;-75
2021/03/24 08:58:51;;;;;;;73.03;35.38;;;;;;;8.25;100.00;98553.66;5011390;28;20073;-75
2021/03/24 09:01:57;;;;;;;61.22;33.40;;;;;;;8.51;100.00;98559.78;5028146;28;20046;-76
2021/03/24 09:04:38;;;;;;;69.53;32.63;;;;;;;8.48;100.00;98550.34;5028204;28;20061;-75
2021/03/24 09:07:20;;;;;;;71.53;33.20;;;;;;;8.82;100.00;98552.28;5027572;28;20120;-74
2021/03/24 09:10:01;;;;;;;65.03;33.63;;;;;;;9.04;100.00;98553.47;5027853;28;20397;-75
2021/03/24 09:12:39;;;;;;;63.35;33.88;;;;;;;9.15;100.00;98537.97;5009978;28;20509;-75
2021/03/24 09:15:10;;;;;;;68.55;33.80;;;;;;;8.93;100.00;98551.13;5027597;28;20519;-74
2021/03/24 09:17:56;;;;;;;69.10;33.60;;;;;;;9.32;100.00;98544.56;5027605;28;20041;-75
2021/03/24 09:20:40;;;;;;;69.70;35.00;;;;;;;9.63;100.00;98547.78;5027678;28;20057;-73
2021/03/24 09:23:37;;;;;;;65.68;34.53;;;;;;;10.12;100.00;98547.53;5009928;28;20072;-74
2021/03/24 09:26:41;;;;;;;68.15;34.92;;;;;;;10.58;100.00;98535.00;5033348;28;20063;-74
2021/03/24 09:29:35;;;;;;;65.85;34.42;;;;;;;10.72;100.00;98542.38;4976685;28;20057;-73
2021/03/24 09:32:14;;;;;;;70.28;34.47;;;;;;;10.73;100.00;98539.41;5027362;28;20052;-75
2021/03/24 09:34:49;;;;;;;72.30;36.78;;;;;;;10.43;100.00;98542.53;5027064;28;20115;-75
2021/03/24 09:37:23;;;;;;;69.65;36.58;;;;;;;10.19;100.00;98536.38;5027258;28;20057;-75
2021/03/24 09:39:59;;;;;;;72.97;35.35;;;;;;;10.56;100.00;98525.56;5027325;28;20389;-76
2021/03/24 09:42:51;;;;;;;68.30;35.25;;;;;;;10.57;100.00;98524.47;5027129;28;20519;-76
2021/03/24 09:45:22;;;;;;;71.55;36.42;;;;;;;10.47;100.00;98517.31;5009128;28;20118;-76
2021/03/24 09:48:00;;;;;;;69.65;35.70;;;;;;;10.29;100.00;98526.22;5026913;28;20120;-75
2021/03/24 09:50:44;;;;;;;80.70;35.75;;;;;;;10.35;100.00;98524.25;5026981;28;20049;-75
2021/03/24 09:53:12;;;;;;;67.32;36.47;;;;;;;10.27;100.00;98522.19;5026278;28;20048;-75
2021/03/24 09:55:54;;;;;;;69.82;37.00;;;;;;;10.39;100.00;98523.38;5045640;28;20133;-76
2021/03/24 09:58:23;;;;;;;69.88;37.30;;;;;;;11.36;100.00;98530.78;5045632;28;20080;-75
2021/03/24 10:01:25;;;;;;;66.07;36.28;;;;;;;10.86;100.00;98521.59;5045997;28;20041;-76
2021/03/24 10:04:17;;;;;;;71.03;36.55;;;;;;;11.06;100.00;98516.66;5054357;28;20053;-74
2021/03/24 10:07:14;;;;;;;71.32;37.35;;;;;;;11.57;100.00;98529.31;5048552;28;20539;-73
2021/03/24 10:09:51;;;;;;;70.30;38.78;;;;;;;11.31;100.00;98509.19;5047050;28;20053;-73
2021/03/24 10:12:24;;;;;;;71.55;38.13;;;;;;;11.39;100.00;98522.88;5054259;28;20060;-74
2021/03/24 10:15:07;;;;;;;70.93;39.17;;;;;;;11.43;100.00;98514.97;5046635;28;20036;-75
2021/03/24 10:17:39;;;;;;;68.15;36.60;;;;;;;11.49;100.00;98516.47;5045256;28;20052;-75
2021/03/24 10:20:15;;;;;;;64.07;35.65;;;;;;;11.27;100.00;98519.84;5045045;28;20049;-75
2021/03/24 10:22:48;;;;;;;67.57;35.95;;;;;;;10.71;100.00;98506.38;5027816;28;20531;-75
2021/03/24 10:25:28;;;;;;;72.95;36.40;;;;;;;10.73;100.00;98512.31;5046295;28;20048;-74
2021/03/24 10:28:04;;;;;;;70.63;38.63;;;;;;;10.95;100.00;98507.09;5046839;28;20049;-76
2021/03/24 10:30:39;;;;;;;63.72;36.03;;;;;;;11.49;100.00;98505.59;5044738;28;20106;-76
2021/03/24 10:33:25;;;;;;;63.22;36.72;;;;;;;12.63;95.73;98500.84;5046809;28;20053;-76
2021/03/24 10:36:41;;;;;;;64.25;36.45;;;;;;;13.21;93.61;98505.47;5046375;28;20122;-75
2021/03/24 10:39:33;;;;;;;60.33;36.78;;;;;;;13.35;87.72;98509.69;5038592;28;20060;-74
2021/03/24 10:42:05;;;;;;;64.50;35.92;;;;;;;12.24;100.00;98497.91;5044659;28;20893;-75
2021/03/24 10:44:56;;;;;;;73.60;36.47;;;;;;;12.12;100.00;98513.91;5044510;28;20121;-75
2021/03/24 10:47:29;;;;;;;64.43;36.35;;;;;;;11.95;100.00;98503.66;5045259;28;20420;-75
2021/03/24 10:49:58;;;;;;;64.13;36.42;;;;;;;11.74;100.00;98505.97;5045754;28;20110;-75
2021/03/24 10:52:30;;;;;;;67.38;36.13;;;;;;;13.41;78.58;98497.56;5043877;28;20393;-76
2021/03/24 10:55:03;;;;;;;62.40;35.72;;;;;;;12.70;80.19;98495.78;5034423;28;20083;-75
2021/03/24 10:58:10;;;;;;;65.95;37.28;;;;;;;13.79;75.94;98486.22;5045370;28;20103;-74
2021/03/24 11:01:06;;;;;;;61.55;35.78;;;;;;;14.60;66.42;98484.66;5027729;28;20447;-75
2021/03/24 11:03:50;;;;;;;61.13;35.47;;;;;;;14.60;66.42;98484.66;5058541;22;20061;-78
2021/03/24 11:06:32;;;;;;;60.78;36.40;;;;;;;14.60;66.42;98484.66;5030591;28;20146;-81
2021/03/24 11:09:16;;;;;;;60.97;37.08;;;;;;;14.60;66.42;98484.66;5051144;28;20048;-78
2021/03/24 11:11:54;;;;;;;58.90;35.63;;;;;;;17.47;49.04;98449.41;5036218;28;20053;-78
2021/03/24 11:14:24;;;;;;;54.03;35.35;;;;;;;18.24;46.59;98445.66;5027861;28;20045;-79
2021/03/24 11:17:04;;;;;;;51.75;35.33;;;;;;;-141.50;100.00;63355.56;5015826;28;20631;-79
2021/03/24 11:19:33;;;;;;;57.58;35.88;;;;;;;19.69;44.37;98447.03;5031396;28;20042;-80
2021/03/24 11:22:22;;;;;;;50.20;36.40;;;;;;;-141.50;100.00;63355.56;4996235;28;20054;-80
2021/03/24 11:25:06;;;;;;;50.38;34.78;;;;;;;-141.50;100.00;63355.56;5030034;28;20099;-81
2021/03/24 11:27:49;;;;;;;55.55;35.80;;;;;;;-141.50;100.00;63355.56;5012847;28;20136;-80
2021/03/24 11:30:39;;;;;;;55.42;35.72;;;;;;;-141.50;100.00;63355.56;5030325;28;20045;-80
2021/03/24 11:33:36;;;;;;;55.72;35.92;;;;;;;-141.50;100.00;63355.56;5013971;28;20400;-80
2021/03/24 11:36:19;;;;;;;60.42;36.45;;;;;;;-141.50;100.00;63355.56;5029360;28;20095;-79
2021/03/24 11:38:54;;;;;;;52.17;35.53;;;;;;;-141.50;100.00;63355.56;5029428;28;20045;-80
2021/03/24 11:41:24;;;;;;;59.15;38.20;;;;;;;-141.50;100.00;63355.56;4995677;28;20041;-80
2021/03/24 11:44:01;;;;;;;51.42;34.58;;;;;;;-141.50;100.00;63355.56;4994661;28;20057;-79
2021/03/24 11:46:34;;;;;;;56.20;33.67;;;;;;;-141.50;100.00;63355.56;5040007;28;20448;-79
2021/03/24 11:49:03;;;;;;;56.08;36.28;;;;;;;-141.50;100.00;63355.56;5011479;28;20048;-79
2021/03/24 11:51:40;;;;;;;54.50;36.15;;;;;;;-141.50;100.00;63355.56;5028820;28;20057;-79
2021/03/24 11:54:16;;;;;;;48.72;33.63;;;;;;;-141.50;100.00;63355.56;5018504;28;20452;-78
2021/03/24 11:57:14;;;;;;;;;;;;;;;-141.50;100.00;63355.56;5037463;28;20057;-79
2021/03/24 12:00:05;;;;;;;53.75;34.90;;;;;;;-141.50;100.00;63355.56;4945699;28;20430;-79
2021/03/24 12:02:49;;;;;;;50.78;33.25;;;;;;;-141.50;100.00;63355.56;5030768;28;20068;-80
2021/03/24 12:05:55;;;;;;;54.45;34.90;;;;;;;-141.50;100.00;63355.56;5014644;28;20068;-79